Time;durP1;ratioP1;P1;durP2;ratioP2;P2;SDS_P1;SDS_P2;PMS_P1;PMS_P2;Temp;Humidity;BMP_temperature;BMP_pressure;BME280_temperature;BME280_humidity;BME280_pressure;Samples;Min_cycle;Max_cycle;Signal;HPM_P1;HPM_P2
2024/01/23 00:01:31;;;;;;;13.00;3.35;;;;;;;4.96;69.26;100359.25;4983963;28;20054;-59
2024/01/23 00:03:57;;;;;;;13.30;2.65;;;;;;;4.99;69.38;100369.59;4978831;28;20608;-53
2024/01/23 00:06:24;;;;;;;3.88;1.83;;;;;;;4.96;68.96;100367.81;4985736;28;20054;-55
2024/01/23 00:08:52;;;;;;;1.67;1.58;;;;;;;4.90;69.48;100370.25;4985374;28;20133;-52
2024/01/23 00:11:19;;;;;;;6.53;2.78;;;;;;;4.93;70.28;100377.16;4982993;28;20427;-57
2024/01/23 00:13:46;;;;;;;3.95;1.48;;;;;;;4.91;69.90;100386.50;4983080;28;20611;-56
2024/01/23 00:16:13;;;;;;;6.35;2.63;;;;;;;4.89;70.34;100400.16;4980632;28;20046;-54
2024/01/23 00:18:40;;;;;;;9.32;3.00;;;;;;;4.89;70.13;100404.41;4978436;28;20042;-50
2024/01/23 00:21:07;;;;;;;3.85;1.17;;;;;;;4.94;69.72;100414.81;4983507;28;20761;-58
2024/01/23 00:23:33;;;;;;;9.85;3.05;;;;;;;4.89;69.75;100415.56;4985349;28;20093;-56
2024/01/23 00:26:01;;;;;;;4.32;2.30;;;;;;;4.84;70.86;100414.59;4979648;28;20042;-56
2024/01/23 00:28:29;;;;;;;11.77;3.22;;;;;;;4.88;70.64;100424.09;4985908;28;20050;-56
2024/01/23 00:30:56;;;;;;;3.35;2.00;;;;;;;4.86;70.00;100422.28;4985881;28;20049;-57
2024/01/23 00:33:24;;;;;;;8.60;3.13;;;;;;;4.91;70.22;100427.56;4985410;28;20058;-59
2024/01/23 00:35:51;;;;;;;11.40;4.07;;;;;;;4.86;70.54;100430.88;4981426;28;20088;-56
2024/01/23 00:38:18;;;;;;;6.10;2.17;;;;;;;4.86;70.41;100432.56;4982392;28;20137;-56
2024/01/23 00:40:44;;;;;;;6.47;3.22;;;;;;;4.84;70.67;100427.41;4978110;28;20046;-53
2024/01/23 00:43:12;;;;;;;5.13;1.92;;;;;;;4.78;70.90;100422.09;4975257;28;20062;-56
2024/01/23 00:45:39;;;;;;;5.38;2.08;;;;;;;4.76;70.89;100416.03;4980159;28;20051;-52
2024/01/23 00:48:05;;;;;;;10.77;2.63;;;;;;;4.79;70.74;100418.69;4976088;28;20050;-51
2024/01/23 00:50:32;;;;;;;10.77;2.88;;;;;;;4.78;71.40;100416.97;4981964;28;20050;-56
2024/01/23 00:52:59;;;;;;;5.47;2.50;;;;;;;4.74;71.25;100410.03;4977171;28;20062;-59
2024/01/23 00:55:26;;;;;;;3.08;2.67;;;;;;;4.72;71.96;100411.66;4981463;28;20055;-57
2024/01/23 00:57:52;;;;;;;7.60;2.20;;;;;;;4.74;71.53;100410.03;4977404;28;20053;-52
2024/01/23 01:00:20;;;;;;;4.53;2.30;;;;;;;4.75;71.66;100422.03;4983396;28;20389;-57
2024/01/23 01:02:47;;;;;;;15.52;3.90;;;;;;;4.74;72.36;100417.72;4977018;28;20409;-55
2024/01/23 01:05:13;;;;;;;5.93;1.90;;;;;;;4.72;71.55;100406.53;4980993;28;20376;-52
2024/01/23 01:07:41;;;;;;;7.40;2.45;;;;;;;4.78;71.91;100409.28;4980312;28;20046;-56
2024/01/23 01:10:10;;;;;;;6.25;3.13;;;;;;;4.87;71.75;100408.66;4976685;28;20051;-57
2024/01/23 01:12:37;;;;;;;9.35;2.85;;;;;;;4.88;71.47;100412.94;4984097;28;20050;-55
2024/01/23 01:15:07;;;;;;;2.90;1.20;;;;;;;4.91;71.12;100422.44;4980078;28;20485;-56
2024/01/23 01:17:34;;;;;;;5.03;3.05;;;;;;;4.87;71.21;100417.22;4982685;28;20054;-54
2024/01/23 01:20:00;;;;;;;5.80;2.42;;;;;;;4.85;71.08;100429.16;4975835;28;20056;-57
2024/01/23 01:22:30;;;;;;;6.10;2.78;;;;;;;4.83;71.56;100435.91;4983019;28;20055;-59
2024/01/23 01:24:57;;;;;;;5.65;2.00;;;;;;;4.88;70.88;100442.06;4978131;28;20050;-55
2024/01/23 01:27:23;;;;;;;9.13;2.88;;;;;;;4.83;71.17;100450.47;4968980;28;20053;-51
2024/01/23 01:29:51;;;;;;;7.60;2.75;;;;;;;4.90;70.71;100447.25;4983201;28;20043;-59
2024/01/23 01:32:20;;;;;;;14.55;3.42;;;;;;;4.92;70.53;100450.72;4980266;28;20054;-57
2024/01/23 01:34:50;;;;;;;12.60;2.72;;;;;;;4.87;71.61;100463.41;4980951;28;20053;-53
2024/01/23 01:37:16;;;;;;;7.40;2.60;;;;;;;4.84;71.63;100471.06;4979022;28;20046;-52
2024/01/23 01:39:43;;;;;;;9.05;3.05;;;;;;;4.88;71.77;100465.16;4986239;28;20047;-59
2024/01/23 01:42:11;;;;;;;6.63;3.10;;;;;;;4.85;72.49;100472.78;4982551;28;20146;-57
2024/01/23 01:44:37;;;;;;;12.52;2.60;;;;;;;4.81;71.66;100481.22;4986084;28;20133;-57
2024/01/23 01:47:05;;;;;;;7.57;3.42;;;;;;;4.88;71.90;100490.84;4980582;28;20058;-56
2024/01/23 01:49:31;;;;;;;7.90;3.08;;;;;;;4.84;71.62;100496.72;4985652;28;20136;-56
2024/01/23 01:51:58;;;;;;;8.20;2.72;;;;;;;4.82;71.75;100497.47;4984163;28;20429;-57
2024/01/23 01:54:27;;;;;;;5.93;3.40;;;;;;;4.84;72.05;100509.56;4979389;28;20146;-54
2024/01/23 01:56:56;;;;;;;8.73;2.42;;;;;;;4.87;71.37;100509.59;4983795;28;20050;-52
2024/01/23 01:59:22;;;;;;;9.57;3.78;;;;;;;4.85;71.93;100521.56;4986734;28;20081;-53
2024/01/23 02:01:50;;;;;;;5.70;3.72;;;;;;;4.85;71.95;100530.94;4981824;28;20064;-54
2024/01/23 02:04:17;;;;;;;8.90;3.83;;;;;;;4.85;71.78;100526.69;4981924;28;20046;-57
2024/01/23 02:06:46;;;;;;;12.25;2.60;;;;;;;4.78;71.86;100534.16;4983508;28;20507;-55
2024/01/23 02:09:13;;;;;;;7.40;4.00;;;;;;;4.84;71.98;100545.50;4980178;28;20050;-54
2024/01/23 02:12:00;;;;;;;7.60;3.40;;;;;;;4.80;72.12;100533.34;4980861;28;20049;-57
2024/01/23 02:14:29;;;;;;;9.10;2.80;;;;;;;4.85;71.83;100536.06;4979372;28;20100;-54
2024/01/23 02:16:56;;;;;;;9.98;2.92;;;;;;;4.83;71.36;100554.00;4982612;28;20049;-54
2024/01/23 02:19:26;;;;;;;9.73;2.80;;;;;;;4.86;71.48;100548.06;4981047;28;20049;-52
2024/01/23 02:21:55;;;;;;;8.43;2.90;;;;;;;4.86;71.73;100554.09;4989244;28;20050;-58
2024/01/23 02:24:22;;;;;;;9.10;3.22;;;;;;;4.84;71.50;100570.28;4982270;28;20046;-57
2024/01/23 02:26:49;;;;;;;8.02;2.72;;;;;;;4.86;71.92;100569.47;4985537;28;20054;-55
2024/01/23 02:29:16;;;;;;;14.10;3.85;;;;;;;4.80;71.46;100574.44;4984920;28;20065;-53
2024/01/23 02:31:45;;;;;;;9.45;3.47;;;;;;;4.84;71.84;100581.41;4992414;28;20046;-55
2024/01/23 02:34:11;;;;;;;8.32;3.08;;;;;;;4.75;71.81;100586.25;4985983;28;20054;-54
2024/01/23 02:36:41;;;;;;;9.10;2.55;;;;;;;4.78;71.53;100585.47;4987563;28;20050;-57
2024/01/23 02:39:10;;;;;;;10.88;3.75;;;;;;;4.75;71.36;100591.41;4987469;28;20050;-58
2024/01/23 02:41:38;;;;;;;8.73;3.25;;;;;;;4.74;72.52;100602.50;4972951;28;20101;-53
2024/01/23 02:44:05;;;;;;;11.45;3.17;;;;;;;4.74;72.69;100599.94;4978707;28;20231;-55
2024/01/23 02:46:31;;;;;;;18.20;3.33;;;;;;;4.75;72.02;100601.66;4984238;28;20050;-56
2024/01/23 02:48:59;;;;;;;8.25;3.00;;;;;;;4.72;72.37;100609.25;4981559;28;20050;-58
2024/01/23 02:51:26;;;;;;;8.27;3.25;;;;;;;4.74;71.79;100610.19;4983497;28;20039;-55
2024/01/23 02:53:53;;;;;;;15.05;2.47;;;;;;;4.73;72.09;100606.75;4975776;28;20154;-60
2024/01/23 02:56:20;;;;;;;6.40;4.57;;;;;;;4.71;71.90;100605.84;4985052;28;20054;-60
2024/01/23 02:58:46;;;;;;;10.93;3.15;;;;;;;4.72;71.79;100606.69;4984980;28;20127;-54
2024/01/23 03:01:13;;;;;;;16.77;1.67;;;;;;;4.67;72.41;100619.41;4977494;28;20502;-55
2024/01/23 03:03:41;;;;;;;11.02;2.67;;;;;;;4.71;71.49;100620.34;4983444;28;20050;-54
2024/01/23 03:06:09;;;;;;;11.02;3.55;;;;;;;4.63;72.08;100618.44;4984513;28;20054;-55
2024/01/23 03:08:36;;;;;;;11.50;3.17;;;;;;;4.64;71.55;100616.75;4985805;28;20109;-53
2024/01/23 03:11:03;;;;;;;13.68;2.72;;;;;;;4.63;72.21;100613.28;4983306;28;20047;-53
2024/01/23 03:13:30;;;;;;;5.07;2.78;;;;;;;4.61;72.02;100614.06;4986248;28;20050;-57
2024/01/23 03:15:58;;;;;;;1.63;0.75;;;;;;;4.57;71.90;100612.25;4976525;28;20499;-57
2024/01/23 03:18:24;;;;;;;11.18;3.08;;;;;;;4.55;72.40;100622.44;4984955;28;20065;-56
2024/01/23 03:20:51;;;;;;;11.38;3.00;;;;;;;4.50;72.77;100626.56;4977108;28;20156;-52
2024/01/23 03:23:19;;;;;;;10.73;3.10;;;;;;;4.49;72.40;100650.47;4979936;28;20137;-57
2024/01/23 03:25:46;;;;;;;5.53;2.47;;;;;;;4.46;72.23;100655.53;4978738;28;20062;-58
2024/01/23 03:28:13;;;;;;;6.13;2.80;;;;;;;4.43;72.62;100660.56;4979015;28;20105;-58
2024/01/23 03:30:39;;;;;;;12.43;3.22;;;;;;;4.39;72.51;100658.72;4984810;28;20047;-56
2024/01/23 03:33:06;;;;;;;5.90;2.72;;;;;;;4.36;72.43;100659.50;4984114;28;20074;-54
2024/01/23 03:35:33;;;;;;;13.30;2.45;;;;;;;4.32;72.68;100663.63;4978204;28;20065;-54
2024/01/23 03:38:00;;;;;;;16.10;2.75;;;;;;;4.28;72.45;100666.03;4983819;28;20050;-58
2024/01/23 03:40:26;;;;;;;3.90;2.53;;;;;;;4.24;72.94;100665.06;4979102;28;20042;-57
2024/01/23 03:42:54;;;;;;;8.23;2.90;;;;;;;4.28;72.70;100666.03;4984509;28;20050;-53
2024/01/23 03:45:21;;;;;;;10.00;2.92;;;;;;;4.25;72.58;100671.94;4981601;28;20042;-54
2024/01/23 03:47:48;;;;;;;5.43;2.08;;;;;;;4.23;73.36;100658.22;4982626;28;20161;-57
2024/01/23 03:50:18;;;;;;;5.85;2.40;;;;;;;4.27;73.06;100665.19;4980057;28;20053;-57
2024/01/23 03:52:45;;;;;;;6.65;3.05;;;;;;;4.26;73.13;100683.97;4984148;28;20510;-53
2024/01/23 03:55:13;;;;;;;8.73;2.72;;;;;;;4.25;73.02;100682.19;4981818;28;20058;-58
2024/01/23 03:57:41;;;;;;;9.13;3.05;;;;;;;4.25;72.93;100671.94;4979689;28;20104;-56
2024/01/23 04:00:10;;;;;;;6.55;2.90;;;;;;;4.25;72.99;100687.31;4978491;28;20101;-56
2024/01/23 04:02:37;;;;;;;6.72;2.72;;;;;;;4.24;73.04;100685.59;4984439;28;20566;-57
2024/01/23 04:05:05;;;;;;;11.10;2.63;;;;;;;4.21;72.73;100691.50;4981754;28;20142;-53
2024/01/23 04:07:33;;;;;;;9.82;2.40;;;;;;;4.16;72.95;100682.78;4991155;28;20043;-59
2024/01/23 04:10:04;;;;;;;8.80;2.83;;;;;;;4.15;72.94;100695.53;4981960;28;20049;-56
2024/01/23 04:12:30;;;;;;;6.72;2.53;;;;;;;4.09;72.96;100684.25;4986139;28;20153;-55
2024/01/23 04:14:58;;;;;;;8.68;3.05;;;;;;;4.09;72.81;100691.94;4985922;28;20046;-53
2024/01/23 04:17:25;;;;;;;5.53;2.05;;;;;;;4.07;72.75;100693.59;4979757;28;20050;-54
2024/01/23 04:19:52;;;;;;;14.52;2.55;;;;;;;4.06;72.34;100690.97;4989093;28;20070;-54
2024/01/23 04:22:20;;;;;;;10.10;2.67;;;;;;;4.05;72.87;100704.63;4995441;28;20125;-56
2024/01/23 04:24:47;;;;;;;7.10;3.08;;;;;;;4.03;72.88;100702.00;4983662;28;20423;-60
2024/01/23 04:27:16;;;;;;;19.17;2.58;;;;;;;3.97;72.69;100706.91;4985977;28;20057;-51
2024/01/23 04:29:43;;;;;;;10.30;2.72;;;;;;;3.96;73.31;100702.59;4990182;28;20046;-58
2024/01/23 04:32:09;;;;;;;7.90;2.53;;;;;;;3.95;73.03;100698.28;4987133;28;20054;-53
2024/01/23 04:34:36;;;;;;;9.48;3.75;;;;;;;3.93;73.01;100694.78;4985932;28;20053;-58
2024/01/23 04:37:03;;;;;;;10.07;2.42;;;;;;;3.91;72.75;100691.28;4979908;28;20055;-56
2024/01/23 04:39:33;;;;;;;8.13;2.90;;;;;;;3.89;72.91;100698.06;4987215;28;20054;-57
2024/01/23 04:42:00;;;;;;;7.68;2.92;;;;;;;3.86;73.21;100694.56;4989674;28;20507;-53
2024/01/23 04:44:26;;;;;;;9.23;3.10;;;;;;;3.83;73.06;100689.34;4979592;28;20129;-52
2024/01/23 04:46:53;;;;;;;10.00;2.45;;;;;;;3.83;72.97;100694.47;4981928;28;20058;-57
2024/01/23 04:49:21;;;;;;;7.05;2.53;;;;;;;3.81;73.19;100708.91;4984358;28;20057;-55
2024/01/23 04:51:48;;;;;;;5.63;3.40;;;;;;;3.84;73.41;100711.59;4985105;28;20088;-55
2024/01/23 04:54:15;;;;;;;8.40;2.47;;;;;;;3.82;73.68;100709.81;4984360;28;20042;-56
2024/01/23 04:56:42;;;;;;;8.82;2.05;;;;;;;3.82;73.16;100714.94;4980822;28;20101;-56
2024/01/23 04:59:09;;;;;;;9.15;2.47;;;;;;;3.81;72.71;100714.03;4994433;28;20415;-57
2024/01/23 05:01:36;;;;;;;8.75;3.03;;;;;;;3.80;73.38;100714.88;4980954;28;20054;-56
2024/01/23 05:04:04;;;;;;;4.65;3.00;;;;;;;3.81;73.05;100714.03;4985936;28;20058;-52
2024/01/23 05:06:33;;;;;;;12.85;2.75;;;;;;;3.83;73.40;100714.97;4983502;28;20050;-57
2024/01/23 05:08:59;;;;;;;8.52;3.08;;;;;;;3.83;73.66;100711.53;4980776;28;20430;-56
2024/01/23 05:11:26;;;;;;;6.30;2.25;;;;;;;3.85;73.44;100715.88;4980162;28;20081;-56
2024/01/23 05:13:53;;;;;;;9.90;3.40;;;;;;;3.84;73.53;100706.47;4988766;28;20543;-57
2024/01/23 05:16:19;;;;;;;8.15;2.70;;;;;;;3.87;73.22;100695.44;4986889;28;20055;-53
2024/01/23 05:18:46;;;;;;;10.90;3.45;;;;;;;3.90;73.40;100692.13;4986625;28;20058;-53
2024/01/23 05:21:14;;;;;;;4.10;2.88;;;;;;;3.90;73.17;100685.31;4984518;28;20116;-56
2024/01/23 05:23:42;;;;;;;7.28;3.28;;;;;;;3.90;73.19;100679.31;4985101;28;20128;-55
2024/01/23 05:26:09;;;;;;;11.18;2.38;;;;;;;3.88;73.31;100686.94;4986851;28;20509;-55
2024/01/23 05:28:36;;;;;;;6.88;2.25;;;;;;;3.86;73.20;100694.56;4980529;28;20061;-57
2024/01/23 05:31:03;;;;;;;8.43;2.35;;;;;;;3.86;73.68;100699.69;4988249;28;20057;-60
2024/01/23 05:33:30;;;;;;;11.90;2.53;;;;;;;3.89;73.15;100698.06;4988042;28;20055;-57
2024/01/23 05:35:56;;;;;;;10.85;2.85;;;;;;;3.89;73.27;100700.63;4984157;28;20075;-56
2024/01/23 05:38:23;;;;;;;3.08;2.75;;;;;;;3.88;73.13;100704.03;4981796;28;20054;-59
2024/01/23 05:40:50;;;;;;;7.47;2.88;;;;;;;3.87;73.06;100700.56;4988081;28;20053;-56
2024/01/23 05:43:19;;;;;;;10.20;3.13;;;;;;;3.81;73.33;100706.34;4980867;28;20061;-56
2024/01/23 05:45:46;;;;;;;7.28;3.30;;;;;;;3.82;73.07;100702.97;4985278;28;20144;-57
2024/01/23 05:48:12;;;;;;;11.88;2.75;;;;;;;3.82;73.30;100695.28;4979714;28;20047;-60
2024/01/23 05:50:39;;;;;;;8.77;2.53;;;;;;;3.81;73.34;100700.34;4985282;28;20080;-56
2024/01/23 05:53:06;;;;;;;8.77;1.20;;;;;;;3.85;73.66;100708.19;4992594;28;20475;-59
2024/01/23 05:55:33;;;;;;;10.40;3.10;;;;;;;3.86;73.66;100699.69;4981019;28;20527;-55
2024/01/23 05:57:59;;;;;;;8.38;2.67;;;;;;;3.92;73.05;100701.59;4986753;28;20050;-58
2024/01/23 06:00:26;;;;;;;9.85;2.67;;;;;;;3.96;73.32;100705.16;4988981;28;20547;-59
2024/01/23 06:02:54;;;;;;;6.43;1.83;;;;;;;4.02;73.34;100707.06;4989461;28;20047;-55
2024/01/23 06:05:22;;;;;;;11.32;3.13;;;;;;;4.07;72.94;100703.84;4990016;28;20133;-56
2024/01/23 06:07:50;;;;;;;5.78;2.45;;;;;;;4.12;73.28;100696.28;4988262;28;20522;-56
2024/01/23 06:10:18;;;;;;;9.13;2.17;;;;;;;4.14;73.18;100704.03;4988192;28;20062;-57
2024/01/23 06:12:44;;;;;;;6.15;2.42;;;;;;;4.19;73.39;100694.81;4980722;28;20093;-58
2024/01/23 06:15:11;;;;;;;8.55;2.58;;;;;;;4.23;73.29;100704.38;4984072;28;20058;-57
2024/01/23 06:17:38;;;;;;;7.90;2.05;;;;;;;4.27;73.17;100693.38;4976812;28;20062;-55
2024/01/23 06:20:07;;;;;;;9.40;2.90;;;;;;;4.31;73.23;100697.78;4984726;28;20050;-56
2024/01/23 06:22:36;;;;;;;7.20;2.00;;;;;;;4.35;73.61;100681.69;4982359;28;20755;-59
2024/01/23 06:25:06;;;;;;;4.82;2.10;;;;;;;4.39;73.02;100684.34;4987950;28;20054;-55
2024/01/23 06:27:33;;;;;;;7.13;2.53;;;;;;;4.42;72.83;100682.75;4980572;28;20042;-54
2024/01/23 06:30:00;;;;;;;11.88;2.05;;;;;;;4.45;73.20;100679.41;4986022;28;20127;-56
2024/01/23 06:32:27;;;;;;;6.40;2.60;;;;;;;4.48;73.17;100674.38;4985272;28;20054;-59
2024/01/23 06:34:54;;;;;;;4.85;2.05;;;;;;;4.52;72.69;100683.91;4982970;28;20054;-56
2024/01/23 06:37:21;;;;;;;9.25;3.22;;;;;;;4.54;73.16;100679.72;4979634;28;20111;-57
2024/01/23 06:39:47;;;;;;;9.50;3.20;;;;;;;4.56;72.94;100675.50;4984888;28;20058;-54
2024/01/23 06:42:14;;;;;;;10.30;2.58;;;;;;;4.59;72.83;100673.03;4981598;28;20082;-56
2024/01/23 06:44:41;;;;;;;12.02;2.55;;;;;;;4.60;73.49;100664.50;4983033;28;20136;-56
2024/01/23 06:47:09;;;;;;;10.05;3.03;;;;;;;4.61;73.71;100666.28;4992291;28;20050;-57
2024/01/23 06:49:35;;;;;;;6.40;2.78;;;;;;;4.62;74.05;100668.00;4981886;28;20167;-55
2024/01/23 06:52:04;;;;;;;7.85;3.00;;;;;;;4.67;73.79;100677.53;4984502;28;20487;-57
2024/01/23 06:54:32;;;;;;;13.35;3.58;;;;;;;4.69;73.63;100683.63;4983521;28;20068;-57
2024/01/23 06:57:00;;;;;;;7.03;2.55;;;;;;;4.71;73.65;100687.09;4983264;28;20113;-57
2024/01/23 06:59:27;;;;;;;11.48;3.58;;;;;;;4.72;73.10;100688.81;4980076;28;20054;-57
2024/01/23 07:01:54;;;;;;;4.55;2.47;;;;;;;4.73;73.21;100682.88;4969680;28;20065;-58
2024/01/23 07:04:21;;;;;;;11.23;2.95;;;;;;;4.74;74.04;100674.34;4990529;28;20089;-57
2024/01/23 07:06:49;;;;;;;11.88;2.47;;;;;;;4.73;73.41;100663.19;4985689;28;20112;-55
2024/01/23 07:09:16;;;;;;;2.47;2.25;;;;;;;4.72;73.21;100658.91;4991205;28;20049;-55
2024/01/23 07:11:43;;;;;;;8.75;2.78;;;;;;;4.67;73.86;100655.34;4985591;28;20047;-56
2024/01/23 07:14:09;;;;;;;6.40;2.78;;;;;;;4.72;74.22;100640.06;4984833;28;20049;-59
2024/01/23 07:16:36;;;;;;;5.75;2.35;;;;;;;4.71;74.12;100644.34;4989099;28;20053;-55
2024/01/23 07:19:03;;;;;;;3.83;3.53;;;;;;;4.72;73.72;100637.50;4986026;28;20431;-52
2024/01/23 07:21:31;;;;;;;12.15;3.65;;;;;;;4.72;73.53;100632.34;4982310;28;20077;-55
2024/01/23 07:23:58;;;;;;;5.82;2.88;;;;;;;4.72;74.32;100627.22;4978248;28;20160;-55
2024/01/23 07:26:25;;;;;;;5.13;2.60;;;;;;;4.69;74.44;100622.88;4982568;28;20742;-52
2024/01/23 07:28:52;;;;;;;17.05;3.28;;;;;;;4.71;74.75;100615.22;4984821;28;20058;-58
2024/01/23 07:31:27;;;;;;;9.77;3.55;;;;;;;4.71;74.66;100604.97;4982103;28;20050;-57
2024/01/23 07:33:54;;;;;;;9.80;2.85;;;;;;;4.67;75.96;100596.31;4976661;28;20058;-59
2024/01/23 07:36:21;;;;;;;12.13;3.40;;;;;;;4.69;76.08;100596.38;4979940;28;20061;-56
2024/01/23 07:38:48;;;;;;;5.30;2.70;;;;;;;4.72;76.52;100586.16;4982874;28;20127;-58
2024/01/23 07:41:14;;;;;;;13.35;4.05;;;;;;;4.75;75.96;100573.44;4977148;28;20058;-55
2024/01/23 07:43:41;;;;;;;8.13;3.25;;;;;;;4.74;76.23;100585.41;4980434;28;20133;-56
2024/01/23 07:46:08;;;;;;;8.85;2.85;;;;;;;4.76;76.36;100588.00;4977317;28;20735;-53
2024/01/23 07:48:34;;;;;;;12.65;3.42;;;;;;;4.78;76.63;100585.47;4978505;28;20074;-56
2024/01/23 07:51:04;;;;;;;10.70;3.50;;;;;;;4.80;76.77;100594.97;4978074;28;20085;-57
2024/01/23 07:53:32;;;;;;;6.00;2.92;;;;;;;4.82;76.53;100593.31;4980710;28;20042;-53
2024/01/23 07:56:00;;;;;;;13.45;3.25;;;;;;;4.86;77.05;100592.59;4997340;28;20061;-55
2024/01/23 07:58:29;;;;;;;7.78;2.72;;;;;;;4.91;76.63;100591.84;4990703;28;20625;-55
2024/01/23 08:00:56;;;;;;;11.00;3.17;;;;;;;4.93;76.70;100591.06;4987266;28;20444;-56
2024/01/23 08:03:23;;;;;;;17.85;3.33;;;;;;;4.98;76.86;100579.25;4983759;28;20082;-57
2024/01/23 08:05:51;;;;;;;9.88;3.45;;;;;;;5.00;76.75;100577.59;4987033;28;20059;-58
2024/01/23 08:08:19;;;;;;;16.55;3.00;;;;;;;5.04;77.23;100568.28;4983308;28;20056;-55
2024/01/23 08:10:47;;;;;;;4.20;1.90;;;;;;;5.03;77.53;100571.66;4980515;28;20058;-58
2024/01/23 08:13:14;;;;;;;18.50;3.30;;;;;;;5.08;77.77;100562.41;4979377;28;20133;-57
2024/01/23 08:15:40;;;;;;;5.90;2.47;;;;;;;5.10;77.35;100547.91;4979269;28;20057;-55
2024/01/23 08:18:08;;;;;;;9.48;2.63;;;;;;;5.09;78.82;100535.91;4976130;28;20046;-60
2024/01/23 08:20:35;;;;;;;10.80;2.90;;;;;;;5.12;78.25;100523.16;4979515;28;20065;-59
2024/01/23 08:23:02;;;;;;;10.18;3.90;;;;;;;5.16;78.94;100520.66;4978182;28;20061;-58
2024/01/23 08:25:29;;;;;;;12.68;2.92;;;;;;;5.19;78.21;100505.31;4985043;28;20051;-53
2024/01/23 08:27:55;;;;;;;8.55;3.00;;;;;;;5.20;78.52;100512.22;4980733;28;20051;-54
2024/01/23 08:30:22;;;;;;;12.15;1.33;;;;;;;5.24;79.12;100498.63;4976833;28;20763;-54
2024/01/23 08:32:49;;;;;;;7.50;2.58;;;;;;;5.27;79.72;100498.72;4974729;28;20054;-56
2024/01/23 08:35:16;;;;;;;17.08;2.05;;;;;;;5.33;78.87;100504.00;4981714;28;20531;-60
2024/01/23 08:37:45;;;;;;;5.05;2.67;;;;;;;5.37;80.12;100495.53;4987151;28;20046;-57
2024/01/23 08:40:15;;;;;;;8.30;2.97;;;;;;;5.41;79.56;100496.50;4981433;28;20058;-56
2024/01/23 08:42:41;;;;;;;18.35;3.65;;;;;;;5.47;79.32;100496.63;4977781;28;20146;-55
2024/01/23 08:45:08;;;;;;;15.68;5.10;;;;;;;5.51;81.25;100498.44;4984470;28;20054;-54
2024/01/23 08:47:35;;;;;;;8.80;3.25;;;;;;;5.58;80.63;100498.63;4983624;28;20672;-56
2024/01/23 08:50:03;;;;;;;4.95;3.33;;;;;;;5.63;80.89;100482.47;4981036;28;20131;-55
2024/01/23 08:52:30;;;;;;;8.70;2.13;;;;;;;5.70;79.97;100492.88;4985860;28;20498;-59
2024/01/23 08:54:57;;;;;;;8.93;1.83;;;;;;;5.74;79.94;100481.88;4987576;28;20057;-57
2024/01/23 08:57:25;;;;;;;4.70;0.90;;;;;;;5.80;81.10;100489.72;4994259;28;20057;-54
2024/01/23 08:59:52;;;;;;;13.15;3.33;;;;;;;5.84;81.43;100476.09;4994574;28;20082;-59
2024/01/23 09:02:19;;;;;;;8.60;1.88;;;;;;;5.87;80.62;100476.19;4988083;28;20046;-53
2024/01/23 09:04:46;;;;;;;2.45;2.08;;;;;;;5.86;81.68;100474.47;4980029;28;20062;-58
2024/01/23 09:07:13;;;;;;;12.88;2.65;;;;;;;5.88;81.79;100465.06;4986974;28;20511;-58
2024/01/23 09:09:40;;;;;;;8.98;3.53;;;;;;;5.91;80.55;100462.56;4979326;28;20038;-58
2024/01/23 09:12:07;;;;;;;7.18;3.17;;;;;;;5.96;81.44;100466.94;4983916;28;20089;-58
2024/01/23 09:14:34;;;;;;;4.15;2.60;;;;;;;5.95;81.94;100457.50;4986732;28;20054;-57
2024/01/23 09:17:00;;;;;;;7.13;3.45;;;;;;;5.99;81.43;100454.16;4993840;28;20045;-57
2024/01/23 09:19:29;;;;;;;11.95;3.17;;;;;;;6.01;81.91;100455.09;4986084;28;20051;-54
2024/01/23 09:21:56;;;;;;;8.45;2.85;;;;;;;5.99;81.56;100443.88;4982472;28;20042;-56
2024/01/23 09:24:23;;;;;;;6.95;2.03;;;;;;;6.00;83.32;100436.19;4991080;28;20100;-55
2024/01/23 09:26:50;;;;;;;9.68;2.90;;;;;;;6.05;82.27;100431.19;4987931;28;20137;-57
2024/01/23 09:29:18;;;;;;;4.80;2.67;;;;;;;6.06;82.23;100432.94;4989652;28;20148;-59
2024/01/23 09:31:46;;;;;;;6.10;3.17;;;;;;;6.12;81.75;100435.63;4990427;28;20130;-52
2024/01/23 09:34:13;;;;;;;8.57;2.67;;;;;;;6.05;83.96;100413.19;4981278;28;20061;-58
2024/01/23 09:36:40;;;;;;;7.47;3.28;;;;;;;6.12;83.05;100406.47;4988488;28;20577;-55
2024/01/23 09:39:07;;;;;;;10.27;2.78;;;;;;;6.12;83.10;100384.19;4986045;28;20058;-59
2024/01/23 09:41:35;;;;;;;8.52;2.97;;;;;;;6.13;83.72;100369.63;4986545;28;20042;-56
2024/01/23 09:44:03;;;;;;;8.77;3.65;;;;;;;6.09;85.12;100357.53;4985741;28;20050;-54
2024/01/23 09:46:30;;;;;;;5.10;2.47;;;;;;;6.09;83.76;100350.72;4987055;28;20156;-55
2024/01/23 09:48:57;;;;;;;8.32;3.22;;;;;;;6.15;84.57;100337.09;4982620;28;20054;-54
2024/01/23 09:51:24;;;;;;;11.50;3.90;;;;;;;6.11;84.35;100343.03;4984706;28;20054;-56
2024/01/23 09:53:51;;;;;;;6.35;1.50;;;;;;;6.13;85.53;100338.75;4982918;28;20526;-57
2024/01/23 09:56:19;;;;;;;5.38;3.13;;;;;;;6.14;83.92;100331.09;4983363;28;20049;-57
2024/01/23 09:58:45;;;;;;;10.38;3.45;;;;;;;6.17;85.42;100325.13;4985047;28;20093;-53
2024/01/23 10:01:12;;;;;;;6.45;3.70;;;;;;;6.21;85.46;100305.50;4986037;28;20054;-55
2024/01/23 10:03:44;;;;;;;3.28;2.47;;;;;;;6.24;86.00;100310.69;4985337;28;20054;-55
2024/01/23 10:06:11;;;;;;;8.63;2.75;;;;;;;6.33;85.49;100304.84;4976877;28;20054;-56
2024/01/23 10:08:37;;;;;;;5.60;3.17;;;;;;;6.30;86.33;100285.06;4978654;28;20046;-57
2024/01/23 10:11:04;;;;;;;3.92;2.67;;;;;;;6.33;86.02;100274.84;4980539;28;20046;-56
2024/01/23 10:13:31;;;;;;;3.83;3.15;;;;;;;6.30;86.85;100255.09;4986164;28;20054;-59
2024/01/23 10:15:58;;;;;;;9.30;3.58;;;;;;;6.34;87.24;100240.56;4985144;28;20058;-57
2024/01/23 10:18:25;;;;;;;10.75;3.55;;;;;;;6.36;87.45;100241.47;4977560;28;20050;-53
2024/01/23 10:20:55;;;;;;;;;;;;;;;6.34;87.59;100224.25;4982451;28;20061;-58
2024/01/23 10:23:22;;;;;;;6.15;2.53;;;;;;;6.40;87.03;100229.50;4982722;28;19930;-56
2024/01/23 10:25:50;;;;;;;5.07;2.30;;;;;;;6.44;87.36;100221.00;4978385;28;20495;-56
2024/01/23 10:28:17;;;;;;;8.02;2.45;;;;;;;6.48;86.29;100221.94;4982361;28;20061;-58
2024/01/23 10:30:45;;;;;;;7.07;3.78;;;;;;;6.46;87.91;100213.31;4979403;28;20065;-55
2024/01/23 10:33:13;;;;;;;3.45;2.78;;;;;;;6.51;88.26;100201.38;4986059;28;20049;-58
2024/01/23 10:35:41;;;;;;;4.22;3.72;;;;;;;6.60;88.37;100183.53;4981128;28;20050;-55
2024/01/23 10:38:13;;;;;;;3.17;2.88;;;;;;;6.60;87.60;100169.78;4989213;28;20046;-53
2024/01/23 10:40:41;;;;;;;7.47;3.45;;;;;;;6.65;87.62;100192.19;4990000;28;20054;-57
2024/01/23 10:43:08;;;;;;;4.32;2.85;;;;;;;6.71;88.29;100172.50;4987339;28;20038;-54
2024/01/23 10:45:36;;;;;;;4.55;2.42;;;;;;;6.77;89.27;100157.16;4986881;28;20050;-53
2024/01/23 10:48:06;;;;;;;4.82;3.33;;;;;;;6.78;88.55;100158.91;4984576;28;20074;-57
2024/01/23 10:50:34;;;;;;;7.35;2.92;;;;;;;6.80;90.00;100146.94;4984584;28;20054;-58
2024/01/23 10:53:05;;;;;;;5.72;3.28;;;;;;;6.83;89.21;100152.13;4979767;28;20140;-54
2024/01/23 10:55:39;;;;;;;4.30;2.92;;;;;;;6.93;88.85;100133.38;4974246;28;20089;-53
2024/01/23 10:58:18;;;;;;;4.22;3.58;;;;;;;6.99;90.26;100126.59;4987168;28;20058;-55
2024/01/23 11:00:48;;;;;;;4.13;2.20;;;;;;;7.08;88.64;100118.97;4982659;28;20047;-57
2024/01/23 11:03:15;;;;;;;6.38;2.58;;;;;;;7.14;88.97;100101.03;4979342;28;20100;-55
2024/01/23 11:05:51;;;;;;;6.15;4.10;;;;;;;7.18;89.53;100096.75;4977415;28;20431;-55
2024/01/23 11:08:25;;;;;;;5.88;2.33;;;;;;;7.23;89.38;100095.09;4976515;28;20057;-54
2024/01/23 11:11:14;;;;;;;3.90;3.22;;;;;;;7.28;89.73;100082.28;4983508;28;20059;-54
2024/01/23 11:13:52;;;;;;;5.72;3.17;;;;;;;7.31;89.83;100072.00;4979571;28;20050;-55
2024/01/23 11:16:19;;;;;;;2.90;2.60;;;;;;;7.38;89.63;100072.94;4972925;28;20058;-52
2024/01/23 11:18:47;;;;;;;16.92;3.85;;;;;;;7.43;90.06;100072.13;4981476;28;20046;-54
2024/01/23 11:21:15;;;;;;;3.22;2.65;;;;;;;7.52;89.59;100039.56;4983358;28;20061;-53
2024/01/23 11:23:44;;;;;;;2.28;2.05;;;;;;;7.58;89.40;100049.94;4979125;28;20069;-55
2024/01/23 11:26:19;;;;;;;9.80;2.80;;;;;;;7.63;89.02;100032.81;4970850;28;20074;-57
2024/01/23 11:28:59;;;;;;;7.28;2.97;;;;;;;7.71;88.82;100041.47;4987229;28;20096;-51
2024/01/23 11:31:28;;;;;;;2.67;2.47;;;;;;;7.79;88.47;100032.94;4978752;28;20097;-54
2024/01/23 11:34:39;;;;;;;3.08;2.30;;;;;;;7.77;88.28;100007.13;4975797;28;20148;-56